Time;durP1;ratioP1;P1;durP2;ratioP2;P2;SDS_P1;SDS_P2;PMS_P1;PMS_P2;Temp;Humidity;BMP_temperature;BMP_pressure;BME280_temperature;BME280_humidity;BME280_pressure;Samples;Min_cycle;Max_cycle;Signal;HPM_P1;HPM_P2
2024/03/11 00:00:48;;;;;;;4.25;1.37;;;;;;;-0.33;51.58;101243.91;1683422;84;21064;-72
2024/03/11 00:03:19;;;;;;;4.22;1.50;;;;;;;-0.30;51.57;101243.31;1661809;85;21105;-72
2024/03/11 00:05:52;;;;;;;5.92;1.70;;;;;;;-0.30;51.52;101247.36;1664046;84;21072;-72
2024/03/11 00:08:22;;;;;;;3.62;1.57;;;;;;;-0.37;51.62;101255.86;1677076;85;21100;-73
2024/03/11 00:10:55;;;;;;;5.80;1.55;;;;;;;-0.37;51.69;101256.34;1665938;85;21171;-72
2024/03/11 00:13:32;;;;;;;3.12;1.40;;;;;;;-0.42;51.77;101262.05;1658976;84;21512;-72
2024/03/11 00:15:59;;;;;;;3.12;1.40;;;;;;;-0.46;51.81;101258.33;1684251;85;21488;-72
2024/03/11 00:18:29;;;;;;;4.85;1.35;;;;;;;-0.48;51.92;101258.44;1668083;85;21084;-72
2024/03/11 00:20:59;;;;;;;4.25;1.20;;;;;;;-0.48;51.95;101269.20;1654615;85;21533;-73
2024/03/11 00:23:28;;;;;;;5.53;1.50;;;;;;;-0.50;52.02;101264.41;1624548;87;21088;-72
2024/03/11 00:25:57;;;;;;;2.75;1.35;;;;;;;-0.53;52.11;101271.84;1619327;88;21102;-73
2024/03/11 00:28:27;;;;;;;3.52;1.50;;;;;;;-0.56;52.21;101272.91;1682348;84;21135;-73
2024/03/11 00:30:56;;;;;;;3.12;1.47;;;;;;;-0.50;52.24;101271.14;1669229;85;21143;-73
2024/03/11 00:33:26;;;;;;;1.85;0.95;;;;;;;-0.50;52.27;101285.08;1679506;84;21048;-73
2024/03/11 00:35:55;;;;;;;2.15;1.10;;;;;;;-0.52;52.27;101283.84;1657143;85;21128;-72
2024/03/11 00:38:24;;;;;;;4.33;1.32;;;;;;;-0.54;52.32;101284.91;1662465;85;21085;-72
2024/03/11 00:40:55;;;;;;;4.12;1.25;;;;;;;-0.55;52.43;101282.71;1674858;85;21103;-73
2024/03/11 00:43:24;;;;;;;3.55;1.20;;;;;;;-0.57;52.53;101285.98;1669137;84;21064;-73
2024/03/11 00:45:52;;;;;;;4.50;1.40;;;;;;;-0.54;52.60;101294.34;1668792;85;21151;-73
2024/03/11 00:48:21;;;;;;;3.65;1.22;;;;;;;-0.56;52.59;101295.78;1665257;85;21076;-73
2024/03/11 00:50:50;;;;;;;3.42;1.32;;;;;;;-0.61;52.76;101297.93;1664501;84;21499;-72
2024/03/11 00:53:19;;;;;;;2.12;1.05;;;;;;;-0.62;52.93;101308.80;1677214;84;21044;-74
2024/03/11 00:55:50;;;;;;;2.47;1.10;;;;;;;-0.70;53.07;101306.11;1660503;85;21088;-73
2024/03/11 00:58:19;;;;;;;3.42;1.20;;;;;;;-0.74;53.26;101323.42;1680570;85;21133;-73
2024/03/11 01:00:48;;;;;;;5.33;1.52;;;;;;;-0.75;53.43;101306.04;1666635;85;21065;-72
2024/03/11 01:03:19;;;;;;;3.80;1.10;;;;;;;-0.75;53.49;101317.66;1660156;85;21371;-72
2024/03/11 01:05:49;;;;;;;4.42;1.65;;;;;;;-0.73;53.57;101309.01;1657064;85;21048;-72
2024/03/11 01:08:18;;;;;;;2.02;1.02;;;;;;;-0.72;53.67;101311.22;1664769;85;21765;-72
2024/03/11 01:10:47;;;;;;;4.53;1.42;;;;;;;-0.71;53.68;101315.63;1661998;84;21546;-73
2024/03/11 01:13:16;;;;;;;2.67;1.00;;;;;;;-0.71;53.73;101318.33;1681352;85;21104;-73
2024/03/11 01:15:46;;;;;;;2.98;1.10;;;;;;;-0.73;53.95;101316.22;1659603;85;21076;-73
2024/03/11 01:18:16;;;;;;;2.30;1.20;;;;;;;-0.74;53.97;101322.56;1655473;85;21148;-72
2024/03/11 01:20:45;;;;;;;2.85;1.22;;;;;;;-0.74;54.03;101311.80;1686073;85;21096;-73
2024/03/11 01:23:15;;;;;;;3.45;1.17;;;;;;;-0.73;54.13;101313.52;1669986;85;21095;-73
2024/03/11 01:25:46;;;;;;;5.53;1.50;;;;;;;-0.74;54.20;101315.84;1666278;85;21085;-73
2024/03/11 01:28:15;;;;;;;3.70;1.25;;;;;;;-0.75;54.21;101319.02;1685653;85;21072;-73
2024/03/11 01:30:43;;;;;;;2.58;0.95;;;;;;;-0.77;54.29;101324.12;1663686;85;21472;-73
2024/03/11 01:33:12;;;;;;;3.87;1.10;;;;;;;-0.80;54.47;101335.08;1680467;85;21040;-73
2024/03/11 01:35:41;;;;;;;3.33;1.10;;;;;;;-0.82;54.61;101327.59;1658288;85;21100;-72
2024/03/11 01:38:10;;;;;;;5.67;1.50;;;;;;;-0.80;54.59;101325.66;1658779;85;21128;-73
2024/03/11 01:40:39;;;;;;;2.27;1.10;;;;;;;-0.80;54.64;101333.73;1659790;85;21092;-73
2024/03/11 01:43:10;;;;;;;4.00;1.32;;;;;;;-0.82;54.64;101335.19;1670731;84;21496;-72
2024/03/11 01:45:39;;;;;;;3.12;1.40;;;;;;;-0.81;54.79;101341.42;1660031;85;21064;-73
2024/03/11 01:48:10;;;;;;;4.05;1.20;;;;;;;-0.81;54.79;101333.36;1670765;85;21065;-73
2024/03/11 01:50:39;;;;;;;4.05;1.30;;;;;;;-0.81;54.82;101345.46;1683715;84;21135;-73
2024/03/11 01:53:09;;;;;;;2.22;1.10;;;;;;;-0.84;54.93;101345.19;1662623;85;21508;-73
2024/03/11 01:55:38;;;;;;;2.92;1.25;;;;;;;-0.84;55.09;101344.32;1673251;84;21103;-72
2024/03/11 01:58:09;;;;;;;2.83;1.40;;;;;;;-0.86;55.18;101348.94;1685499;84;21107;-72
2024/03/11 02:00:37;;;;;;;2.67;1.10;;;;;;;-0.88;55.29;101346.35;1659495;84;21077;-72
2024/03/11 02:03:06;;;;;;;2.50;1.15;;;;;;;-0.92;55.36;101349.34;1664695;85;21216;-72
2024/03/11 02:05:40;;;;;;;3.87;1.10;;;;;;;-0.92;55.52;101356.08;1671719;85;21112;-72
2024/03/11 02:08:06;;;;;;;2.80;1.27;;;;;;;-0.90;55.54;101352.80;1664569;85;21041;-73
2024/03/11 02:10:36;;;;;;;3.33;1.10;;;;;;;-0.86;55.56;101358.36;1676045;85;21072;-72
2024/03/11 02:13:07;;;;;;;2.30;1.25;;;;;;;-0.86;55.64;101355.19;1661923;85;21501;-73
2024/03/11 02:15:36;;;;;;;3.15;1.30;;;;;;;-0.89;55.68;101362.11;1653424;85;21140;-73
2024/03/11 02:18:05;;;;;;;2.98;1.20;;;;;;;-0.92;55.84;101366.83;1658457;85;21049;-72
2024/03/11 02:20:38;;;;;;;3.37;1.15;;;;;;;-0.94;56.05;101360.69;1665324;85;21060;-72
2024/03/11 02:23:06;;;;;;;3.75;1.10;;;;;;;-0.98;56.16;101363.58;1666047;85;21068;-72
2024/03/11 02:25:35;;;;;;;2.77;1.05;;;;;;;-0.97;56.22;101362.62;1662292;85;21595;-72
2024/03/11 02:28:05;;;;;;;5.47;1.35;;;;;;;-0.97;56.28;101366.66;1663026;85;21068;-73
2024/03/11 02:30:34;;;;;;;2.30;1.32;;;;;;;-0.95;56.39;101369.23;1674369;85;21092;-72
2024/03/11 02:33:23;;;;;;;2.17;1.17;;;;;;;-0.97;56.60;101361.75;1663155;85;21036;-72
2024/03/11 02:35:52;;;;;;;1.90;0.90;;;;;;;-0.99;56.76;101359.64;1686314;83;21102;-73
2024/03/11 02:38:22;;;;;;;4.33;1.42;;;;;;;-1.00;57.03;101367.33;1681292;85;21537;-72
2024/03/11 02:40:51;;;;;;;6.33;1.42;;;;;;;-1.02;57.21;101370.60;1689434;83;21026;-72
2024/03/11 02:43:20;;;;;;;3.25;1.20;;;;;;;-1.00;57.35;101373.58;1684847;84;21474;-73
2024/03/11 02:45:49;;;;;;;3.62;1.40;;;;;;;-0.97;57.45;101366.66;1689588;84;21133;-72
2024/03/11 02:48:19;;;;;;;4.35;1.42;;;;;;;-0.96;57.49;101365.69;1684967;84;21110;-73
2024/03/11 02:50:50;;;;;;;1.45;1.12;;;;;;;-0.94;57.68;101379.03;1684598;85;21532;-72
2024/03/11 02:53:20;;;;;;;2.98;1.32;;;;;;;-0.92;57.73;101378.94;1687259;84;21063;-73
2024/03/11 02:55:50;;;;;;;2.50;1.20;;;;;;;-0.93;57.76;101377.21;1684432;85;21039;-74
2024/03/11 02:58:19;;;;;;;2.25;1.15;;;;;;;-0.93;57.88;101386.63;1691100;83;21058;-73
2024/03/11 03:00:48;;;;;;;2.80;1.17;;;;;;;-0.96;58.01;101386.34;1689098;84;21049;-72
2024/03/11 03:03:17;;;;;;;3.08;1.07;;;;;;;-0.98;58.20;101378.86;1688653;84;21047;-72
2024/03/11 03:05:47;;;;;;;3.50;1.37;;;;;;;-0.96;58.36;101391.72;1689590;84;21054;-73
2024/03/11 03:08:15;;;;;;;2.10;1.10;;;;;;;-0.98;58.47;101385.09;1685221;84;21086;-73
2024/03/11 03:10:45;;;;;;;4.50;1.50;;;;;;;-1.00;58.51;101383.47;1685224;83;21486;-73
2024/03/11 03:13:15;;;;;;;2.42;1.30;;;;;;;-1.04;58.70;101381.46;1686909;84;21090;-73
2024/03/11 03:16:06;;;;;;;4.42;1.60;;;;;;;-1.06;58.90;101380.70;1701109;84;21108;-72
2024/03/11 03:18:36;;;;;;;3.27;1.30;;;;;;;-1.06;58.97;101369.94;1721532;82;21057;-73
2024/03/11 03:21:06;;;;;;;2.15;1.07;;;;;;;-1.09;59.13;101374.17;1721537;82;21077;-74
2024/03/11 03:23:37;;;;;;;3.90;1.55;;;;;;;-1.10;59.24;101376.96;1716027;82;21023;-74
2024/03/11 03:26:06;;;;;;;3.65;1.40;;;;;;;-1.11;59.33;101380.61;1714862;83;21085;-74
2024/03/11 03:28:34;;;;;;;3.70;1.30;;;;;;;-1.11;59.46;101384.17;1715276;83;21074;-73
2024/03/11 03:31:04;;;;;;;4.28;1.27;;;;;;;-1.12;59.53;101381.09;1717169;82;21054;-74
2024/03/11 03:33:33;;;;;;;2.15;1.40;;;;;;;-1.12;59.66;101383.78;1719269;82;21031;-73
2024/03/11 03:36:03;;;;;;;3.35;1.30;;;;;;;-1.12;59.69;101386.47;1718497;82;21086;-73
2024/03/11 03:38:33;;;;;;;8.18;1.60;;;;;;;-1.15;59.81;101381.30;1714790;83;21062;-73
2024/03/11 03:41:04;;;;;;;4.33;1.67;;;;;;;-1.15;59.89;101384.46;1715071;83;21050;-74
2024/03/11 03:43:34;;;;;;;2.22;1.47;;;;;;;-1.15;59.99;101385.81;1716909;82;21572;-74
2024/03/11 03:46:03;;;;;;;4.65;1.57;;;;;;;-1.17;60.04;101387.25;1715051;83;21109;-74
2024/03/11 03:48:33;;;;;;;4.35;1.80;;;;;;;-1.15;60.16;101388.02;1716214;82;21514;-72
2024/03/11 03:51:03;;;;;;;5.03;1.92;;;;;;;-1.15;60.19;101386.67;1714926;82;21043;-72
2024/03/11 03:53:33;;;;;;;3.58;1.82;;;;;;;-1.16;60.20;101393.02;1714788;82;21019;-73
2024/03/11 03:56:05;;;;;;;6.40;1.98;;;;;;;-1.18;60.23;101390.04;1716240;82;21130;-73
2024/03/11 03:58:36;;;;;;;5.67;1.67;;;;;;;-1.24;60.39;101392.64;1714778;83;21071;-72
2024/03/11 04:01:05;;;;;;;4.40;2.10;;;;;;;-1.27;60.46;101397.34;1715148;83;21073;-71
2024/03/11 04:03:34;;;;;;;3.72;1.90;;;;;;;-1.30;60.60;101396.58;1714757;82;21034;-74
2024/03/11 04:06:07;;;;;;;5.60;2.10;;;;;;;-1.30;60.73;101396.58;1718135;82;21051;-73
2024/03/11 04:08:38;;;;;;;4.42;2.10;;;;;;;-1.35;60.91;101394.63;1715111;83;21098;-73
2024/03/11 04:11:07;;;;;;;6.05;2.20;;;;;;;-1.33;61.08;101398.56;1715100;83;21086;-73
2024/03/11 04:13:38;;;;;;;6.37;2.60;;;;;;;-1.33;61.23;101399.91;1717169;82;21086;-73
2024/03/11 04:16:11;;;;;;;6.53;2.80;;;;;;;-1.34;61.22;101404.42;1714906;83;21494;-72
2024/03/11 04:18:41;;;;;;;5.83;2.58;;;;;;;-1.32;61.26;101398.47;1717930;83;21070;-74
2024/03/11 04:21:11;;;;;;;7.08;2.67;;;;;;;-1.35;61.27;101397.32;1716992;82;21015;-72
2024/03/11 04:23:41;;;;;;;5.70;2.90;;;;;;;-1.37;61.40;101402.41;1716612;82;21058;-72
2024/03/11 04:26:10;;;;;;;6.10;3.10;;;;;;;-1.36;61.47;101406.34;1715708;82;21066;-73
2024/03/11 04:28:39;;;;;;;7.00;2.92;;;;;;;-1.40;61.49;101406.63;1718250;82;21066;-73
2024/03/11 04:31:08;;;;;;;7.87;2.95;;;;;;;-1.41;61.68;101412.97;1714828;83;21057;-73
2024/03/11 04:33:39;;;;;;;6.97;3.47;;;;;;;-1.39;61.75;101403.84;1715817;82;21082;-73
2024/03/11 04:36:09;;;;;;;6.47;3.17;;;;;;;-1.35;61.76;101404.05;1714918;83;21078;-73
2024/03/11 04:38:39;;;;;;;7.10;3.58;;;;;;;-1.34;61.72;101419.69;1718649;82;21109;-73
2024/03/11 04:41:08;;;;;;;8.33;2.90;;;;;;;-1.33;61.74;101413.35;1719244;83;21093;-74
2024/03/11 04:43:37;;;;;;;6.83;3.27;;;;;;;-1.38;61.70;101417.67;1715866;82;21138;-73
2024/03/11 04:46:09;;;;;;;8.08;3.35;;;;;;;-1.38;61.76;101424.88;1716782;82;21110;-73
2024/03/11 04:48:37;;;;;;;10.08;3.30;;;;;;;-1.40;61.71;101424.97;1722922;82;21129;-73
2024/03/11 04:51:06;;;;;;;7.78;3.42;;;;;;;-1.45;61.77;101424.40;1730613;82;21125;-73
2024/03/11 04:53:36;;;;;;;11.73;3.02;;;;;;;-1.48;61.86;101425.06;1727706;82;21059;-73
2024/03/11 04:56:06;;;;;;;7.85;2.80;;;;;;;-1.55;61.98;101424.58;1715499;82;21042;-73
2024/03/11 04:58:37;;;;;;;7.30;2.80;;;;;;;-1.53;62.10;101421.80;1714568;83;21034;-72
2024/03/11 05:01:06;;;;;;;10.48;3.40;;;;;;;-1.51;62.05;101427.95;1715089;83;21050;-72
2024/03/11 05:03:35;;;;;;;9.10;3.47;;;;;;;-1.51;62.05;101426.13;1714786;82;21058;-73
2024/03/11 05:06:05;;;;;;;10.30;3.33;;;;;;;-1.49;62.00;101435.43;1714583;83;21018;-73
2024/03/11 05:08:34;;;;;;;8.98;3.58;;;;;;;-1.49;61.97;101430.06;1717734;82;21018;-73
2024/03/11 05:11:04;;;;;;;6.50;3.40;;;;;;;-1.50;62.00;101431.02;1714787;83;21066;-73
2024/03/11 05:13:33;;;;;;;6.62;3.42;;;;;;;-1.51;62.04;101428.81;1716175;82;21494;-72
2024/03/11 05:16:01;;;;;;;6.45;3.05;;;;;;;-1.49;62.13;101447.52;1715772;82;21478;-74
2024/03/11 05:18:31;;;;;;;7.22;3.20;;;;;;;-1.46;62.09;101443.30;1714578;82;21062;-72
2024/03/11 05:21:01;;;;;;;10.00;3.05;;;;;;;-1.46;62.05;101440.14;1714989;82;21050;-73
2024/03/11 05:23:30;;;;;;;9.83;3.67;;;;;;;-1.48;61.98;101442.06;1715006;83;21046;-73
2024/03/11 05:25:59;;;;;;;7.83;3.25;;;;;;;-1.46;62.02;101447.34;1718517;82;21478;-74
2024/03/11 05:28:28;;;;;;;7.70;3.00;;;;;;;-1.42;61.92;101454.25;1716625;82;21121;-75
2024/03/11 05:30:58;;;;;;;10.28;3.10;;;;;;;-1.40;61.69;101453.67;1715364;82;21074;-74
2024/03/11 05:33:29;;;;;;;8.25;3.10;;;;;;;-1.39;61.53;101454.06;1715227;82;21032;-73
2024/03/11 05:35:58;;;;;;;5.90;2.85;;;;;;;-1.38;61.46;101459.82;1715744;82;21458;-73
2024/03/11 05:38:28;;;;;;;7.80;3.20;;;;;;;-1.40;61.33;101465.30;1710933;83;21070;-73
2024/03/11 05:40:57;;;;;;;8.15;3.10;;;;;;;-1.37;61.25;101473.64;1711094;83;21457;-72
2024/03/11 05:43:25;;;;;;;11.63;2.80;;;;;;;-1.34;61.09;101466.25;1702025;82;21030;-72
2024/03/11 05:45:55;;;;;;;8.50;3.07;;;;;;;-1.34;60.73;101472.98;1714365;83;21520;-73
2024/03/11 05:48:24;;;;;;;8.63;3.52;;;;;;;-1.35;60.80;101474.41;1651421;86;21048;-72
2024/03/11 05:51:01;;;;;;;9.20;3.08;;;;;;;-1.35;60.66;101477.10;1682227;84;21563;-73
2024/03/11 05:53:26;;;;;;;11.80;3.33;;;;;;;-1.33;60.70;101480.08;1676653;85;21035;-73
2024/03/11 05:55:55;;;;;;;6.40;2.92;;;;;;;-1.30;60.52;101479.92;1711054;83;21069;-73
2024/03/11 05:58:28;;;;;;;7.80;2.77;;;;;;;-1.27;60.46;101477.52;1717674;82;21018;-73
2024/03/11 06:00:58;;;;;;;7.97;2.92;;;;;;;-1.23;60.16;101484.44;1720042;83;21046;-73
2024/03/11 06:03:27;;;;;;;7.42;2.80;;;;;;;-1.24;60.00;101481.36;1730543;82;21083;-72
2024/03/11 06:05:57;;;;;;;10.75;2.95;;;;;;;-1.19;59.81;101490.01;1724887;82;21050;-72
2024/03/11 06:08:27;;;;;;;6.35;2.42;;;;;;;-1.18;59.62;101489.05;1710286;84;21050;-72
2024/03/11 06:10:56;;;;;;;7.47;2.58;;;;;;;-1.17;59.36;101492.13;1715538;83;21093;-73
2024/03/11 06:13:26;;;;;;;6.03;2.95;;;;;;;-1.16;59.10;101496.54;1715191;82;21481;-73
2024/03/11 06:15:54;;;;;;;7.62;2.72;;;;;;;-1.14;59.10;101500.00;1700329;83;21094;-74
2024/03/11 06:18:24;;;;;;;7.33;2.47;;;;;;;-1.11;59.03;101505.66;1715090;82;21560;-73
2024/03/11 06:20:54;;;;;;;9.00;2.83;;;;;;;-1.07;58.95;101512.10;1714732;83;21494;-72
2024/03/11 06:23:24;;;;;;;9.53;3.05;;;;;;;-1.03;58.67;101514.98;1715714;82;21065;-72
2024/03/11 06:25:58;;;;;;;7.40;2.00;;;;;;;-1.03;58.75;101515.46;1716529;82;21536;-72
2024/03/11 06:28:26;;;;;;;6.58;2.15;;;;;;;-0.97;58.73;101516.42;1718310;82;21039;-73
2024/03/11 06:30:56;;;;;;;7.87;2.35;;;;;;;-0.96;58.40;101524.39;1724401;82;21490;-73
2024/03/11 06:33:25;;;;;;;6.40;2.50;;;;;;;-0.99;58.33;101523.24;1725617;82;21121;-72
2024/03/11 06:35:55;;;;;;;10.03;2.50;;;;;;;-0.98;58.38;101530.35;1715445;82;21066;-72
2024/03/11 06:38:24;;;;;;;4.62;1.90;;;;;;;-0.96;58.52;101521.70;1716727;82;21517;-73
2024/03/11 06:40:53;;;;;;;4.90;1.90;;;;;;;-0.90;58.34;101524.48;1714689;83;21051;-73
2024/03/11 06:43:23;;;;;;;5.65;2.17;;;;;;;-0.89;58.25;101530.25;1714817;83;21086;-72
2024/03/11 06:45:52;;;;;;;3.70;2.12;;;;;;;-0.88;58.30;101525.25;1716173;82;21571;-73
2024/03/11 06:48:22;;;;;;;4.20;2.30;;;;;;;-0.85;58.28;101522.38;1714988;83;21488;-73
2024/03/11 06:50:52;;;;;;;9.13;2.27;;;;;;;-0.81;58.11;101528.42;1723297;82;21537;-72
2024/03/11 06:56:12;;;;;;;4.65;2.33;;;;;;;-0.76;58.01;101529.86;1713147;83;21126;-75
2024/03/11 06:58:38;;;;;;;7.35;2.65;;;;;;;-0.71;57.94;101526.88;1711505;83;21721;-74
2024/03/11 07:01:07;;;;;;;6.05;2.55;;;;;;;-0.67;57.76;101524.38;1709900;83;21042;-74
2024/03/11 07:03:37;;;;;;;10.53;2.87;;;;;;;-0.61;57.65;101529.39;1708384;83;21470;-74
2024/03/11 07:06:07;;;;;;;7.00;2.55;;;;;;;-0.53;57.41;101534.28;1706152;83;21102;-74
2024/03/11 07:08:38;;;;;;;5.90;2.80;;;;;;;-0.49;57.25;101527.73;1701559;84;21055;-74
2024/03/11 07:11:09;;;;;;;9.75;2.90;;;;;;;-0.42;56.93;101535.80;1708918;83;21532;-74
2024/03/11 07:13:39;;;;;;;11.80;2.60;;;;;;;-0.39;56.58;101525.70;1706379;83;21459;-74
2024/03/11 07:16:11;;;;;;;6.28;2.72;;;;;;;-0.35;56.37;101531.27;1710887;82;21078;-73
2024/03/11 07:18:44;;;;;;;8.68;2.70;;;;;;;-0.30;55.94;101526.92;1713775;83;21042;-74
2024/03/11 07:21:12;;;;;;;4.70;2.10;;;;;;;-0.24;55.36;101541.81;1713809;83;21105;-72
2024/03/11 07:23:41;;;;;;;5.30;2.35;;;;;;;-0.21;54.80;101537.09;1713661;83;21125;-73
2024/03/11 07:26:10;;;;;;;5.08;2.00;;;;;;;-0.16;54.58;101538.13;1715178;83;21078;-74
2024/03/11 07:28:39;;;;;;;13.40;3.62;;;;;;;-0.13;54.44;101543.32;1708375;83;21042;-73
2024/03/11 07:31:09;;;;;;;6.25;2.25;;;;;;;-0.10;54.31;101545.81;1713161;82;21070;-74
2024/03/11 07:33:39;;;;;;;8.20;2.52;;;;;;;-0.10;54.09;101548.02;1713247;84;21082;-73
2024/03/11 07:36:08;;;;;;;11.28;2.90;;;;;;;-0.08;53.94;101549.27;1713418;82;21134;-75
2024/03/11 07:38:38;;;;;;;6.65;2.62;;;;;;;-0.06;53.64;101554.07;1713282;83;21070;-74
2024/03/11 07:41:08;;;;;;;4.58;2.45;;;;;;;-0.03;53.26;101552.52;1713215;84;21090;-74
2024/03/11 07:43:37;;;;;;;6.17;2.72;;;;;;;-0.03;52.99;101548.48;1713554;83;21130;-73
2024/03/11 07:46:29;;;;;;;12.88;4.65;;;;;;;-0.03;53.19;101547.13;1702230;83;21499;-73
2024/03/11 07:48:59;;;;;;;13.68;4.08;;;;;;;-0.01;53.44;101549.24;1714891;83;21097;-73
2024/03/11 07:51:29;;;;;;;8.13;3.00;;;;;;;0.05;52.91;101552.05;1709980;82;21114;-72
2024/03/11 07:53:58;;;;;;;9.38;2.77;;;;;;;0.10;52.42;101545.38;1713308;83;21085;-74
2024/03/11 07:56:28;;;;;;;6.58;2.80;;;;;;;0.17;52.08;101556.13;1713432;83;21035;-73
2024/03/11 07:58:58;;;;;;;8.75;2.50;;;;;;;0.21;51.88;101552.27;1708462;83;21054;-74
2024/03/11 08:01:27;;;;;;;6.47;2.50;;;;;;;0.27;51.38;101553.20;1715056;83;21050;-73
2024/03/11 08:03:56;;;;;;;4.50;2.37;;;;;;;0.33;51.09;101556.45;1708985;83;21011;-73
2024/03/11 08:06:26;;;;;;;5.58;2.77;;;;;;;0.40;51.36;101555.06;1709292;83;21099;-73
2024/03/11 08:08:55;;;;;;;4.40;2.47;;;;;;;0.70;50.53;101542.20;1705895;84;21035;-73
2024/03/11 08:11:25;;;;;;;4.72;2.40;;;;;;;1.08;49.62;101544.05;1725887;82;21203;-73
2024/03/11 08:13:55;;;;;;;9.75;2.80;;;;;;;1.48;49.10;101540.23;1716380;82;21163;-74
2024/03/11 08:16:24;;;;;;;6.75;2.95;;;;;;;1.97;48.31;101547.47;1708293;82;21134;-76
2024/03/11 08:18:53;;;;;;;6.70;2.58;;;;;;;2.47;48.15;101545.48;1705988;84;21447;-77
2024/03/11 08:21:23;;;;;;;8.13;2.72;;;;;;;3.05;46.14;101535.56;1708202;83;21019;-77
2024/03/11 08:23:54;;;;;;;5.12;2.67;;;;;;;3.49;44.53;101538.30;1706320;83;21059;-73
2024/03/11 08:26:24;;;;;;;5.35;2.30;;;;;;;3.95;42.09;101540.48;1712444;82;21071;-73
2024/03/11 08:28:54;;;;;;;6.87;2.67;;;;;;;4.16;41.68;101533.77;1712543;83;21111;-73
2024/03/11 08:31:24;;;;;;;4.83;2.60;;;;;;;4.34;41.15;101534.92;1713421;82;21007;-73
2024/03/11 08:33:53;;;;;;;6.45;2.20;;;;;;;4.58;41.01;101534.72;1706442;83;21655;-73
2024/03/11 08:36:24;;;;;;;4.40;2.47;;;;;;;4.90;40.83;101536.02;1708618;82;21031;-72
2024/03/11 08:38:55;;;;;;;7.75;3.25;;;;;;;5.17;40.16;101530.88;1714171;83;21079;-74
2024/03/11 08:41:24;;;;;;;8.58;2.80;;;;;;;5.46;39.52;101535.13;1709921;82;21071;-72
2024/03/11 08:43:54;;;;;;;7.70;2.92;;;;;;;5.67;39.61;101527.75;1715116;83;21189;-72
2024/03/11 08:46:23;;;;;;;10.50;3.20;;;;;;;5.93;38.87;101524.59;1713429;84;21079;-74
2024/03/11 08:48:52;;;;;;;8.38;2.90;;;;;;;6.06;37.99;101536.57;1713521;83;21467;-73
2024/03/11 08:51:22;;;;;;;4.70;2.37;;;;;;;6.03;37.67;101537.71;1713451;84;21098;-73
2024/03/11 08:53:52;;;;;;;6.53;2.37;;;;;;;5.98;37.04;101542.72;1714058;83;21071;-75
2024/03/11 08:56:23;;;;;;;12.30;3.25;;;;;;;5.92;37.36;101544.13;1713195;83;21471;-76
2024/03/11 08:58:53;;;;;;;4.47;2.60;;;;;;;5.94;37.47;101534.47;1713356;84;21466;-73
2024/03/11 09:01:22;;;;;;;10.63;3.08;;;;;;;5.81;37.44;101542.83;1708514;82;21035;-74
2024/03/11 09:03:51;;;;;;;3.83;2.25;;;;;;;5.72;39.28;101540.44;1711939;82;21047;-74
2024/03/11 09:06:20;;;;;;;5.42;2.70;;;;;;;5.73;48.15;101539.94;1705826;84;21047;-74
2024/03/11 09:08:52;;;;;;;8.83;3.42;;;;;;;5.95;48.28;101543.86;1706784;82;21166;-74
2024/03/11 09:11:22;;;;;;;8.75;2.80;;;;;;;6.07;41.70;101541.01;1657106;84;21128;-74
2024/03/11 09:13:51;;;;;;;9.03;3.52;;;;;;;5.83;39.07;101535.39;1706848;83;21459;-72
2024/03/11 09:16:21;;;;;;;5.25;2.58;;;;;;;5.58;39.53;101531.80;1719301;82;21498;-72
2024/03/11 09:18:50;;;;;;;7.45;2.62;;;;;;;5.38;38.20;101547.17;1706240;83;21500;-71
2024/03/11 09:21:23;;;;;;;6.00;2.55;;;;;;;5.09;38.39;101531.55;1677987;83;21114;-73
2024/03/11 09:23:53;;;;;;;5.95;3.17;;;;;;;4.90;38.08;101530.08;1678727;84;21482;-73
2024/03/11 09:26:23;;;;;;;7.05;2.83;;;;;;;4.77;38.15;101537.08;1689312;83;21022;-71
2024/03/11 09:28:53;;;;;;;4.90;2.35;;;;;;;4.67;37.59;101536.64;1680836;84;21142;-72
2024/03/11 09:31:45;;;;;;;5.40;2.58;;;;;;;4.49;38.02;101536.33;1652866;85;21097;-71
2024/03/11 09:34:18;;;;;;;7.17;2.60;;;;;;;4.37;37.83;101530.59;1748596;81;21121;-72
2024/03/11 09:36:48;;;;;;;6.55;2.65;;;;;;;4.24;38.38;101527.20;1742073;81;21067;-72
2024/03/11 09:39:19;;;;;;;6.78;2.75;;;;;;;4.17;38.67;101526.85;1742457;82;21067;-73
2024/03/11 09:41:53;;;;;;;5.70;2.60;;;;;;;4.13;38.65;101527.61;1744439;82;21058;-71
2024/03/11 09:44:24;;;;;;;4.80;2.60;;;;;;;4.09;39.09;101519.85;1744315;82;21074;-72
2024/03/11 09:46:55;;;;;;;9.18;2.87;;;;;;;4.04;38.82;101521.59;1728453;81;21051;-72
2024/03/11 09:49:24;;;;;;;10.15;2.70;;;;;;;3.97;38.96;101522.23;1743509;81;21516;-72
2024/03/11 09:51:54;;;;;;;4.87;2.70;;;;;;;3.93;39.04;101516.20;1743320;81;21395;-72
2024/03/11 09:54:24;;;;;;;5.28;2.58;;;;;;;3.94;39.18;101512.50;1747394;82;21073;-70
2024/03/11 09:56:54;;;;;;;4.85;2.70;;;;;;;3.96;39.25;101507.81;1742999;81;21011;-72
2024/03/11 09:59:27;;;;;;;4.12;2.42;;;;;;;3.93;38.96;101516.20;1745945;80;21082;-72
2024/03/11 10:01:59;;;;;;;5.90;2.75;;;;;;;3.94;43.30;101503.51;1740690;81;21142;-72
2024/03/11 10:04:29;;;;;;;5.65;2.87;;;;;;;4.00;40.85;101505.22;1746499;81;21051;-72
2024/03/11 10:07:04;;;;;;;5.30;2.70;;;;;;;3.98;39.58;101501.77;1735137;81;21051;-72
2024/03/11 10:09:32;;;;;;;7.53;3.80;;;;;;;3.91;39.26;101500.56;1732433;82;21417;-72
2024/03/11 10:12:09;;;;;;;7.22;4.25;;;;;;;3.85;40.37;101492.05;1745285;81;21110;-73
2024/03/11 10:14:39;;;;;;;5.67;3.00;;;;;;;3.82;39.21;101494.02;1746951;81;21129;-73
2024/03/11 10:17:28;;;;;;;7.83;2.55;;;;;;;3.75;39.32;101497.36;1741444;81;21044;-72
2024/03/11 10:20:06;;;;;;;6.97;3.72;;;;;;;3.73;39.47;101495.28;1742723;82;21091;-73
2024/03/11 10:22:34;;;;;;;11.83;4.17;;;;;;;3.70;39.38;101486.91;1739729;82;21545;-72
2024/03/11 10:25:06;;;;;;;18.10;6.58;;;;;;;3.71;39.45;101491.84;1671622;85;21091;-72
2024/03/11 10:27:43;;;;;;;14.10;6.65;;;;;;;3.75;39.49;101486.03;1687621;84;21126;-73
2024/03/11 10:30:20;;;;;;;7.72;3.40;;;;;;;3.77;39.84;101487.26;1734939;82;21476;-72
2024/03/11 10:32:57;;;;;;;5.62;3.05;;;;;;;3.77;39.44;101494.03;1678732;85;21075;-73
2024/03/11 10:35:39;;;;;;;8.05;3.52;;;;;;;3.74;39.21;101488.87;1679372;85;21094;-72
2024/03/11 10:38:27;;;;;;;11.00;3.85;;;;;;;3.69;39.05;101489.74;1676480;85;21535;-73
2024/03/11 10:40:56;;;;;;;6.47;3.47;;;;;;;3.68;39.49;101475.33;1666082;85;21058;-72
2024/03/11 10:43:26;;;;;;;4.87;2.83;;;;;;;3.75;39.42;101475.68;1712767;83;21090;-71
2024/03/11 10:45:58;;;;;;;6.10;3.15;;;;;;;3.80;39.14;101474.80;1718211;83;21114;-72
2024/03/11 10:48:29;;;;;;;11.70;3.87;;;;;;;3.78;39.20;101476.78;1720722;82;21178;-71
2024/03/11 10:51:01;;;;;;;5.80;3.00;;;;;;;3.76;39.53;101474.20;1712861;83;21490;-72
2024/03/11 10:53:30;;;;;;;5.45;3.10;;;;;;;3.83;41.14;101478.13;1712805;83;21050;-74
2024/03/11 10:55:59;;;;;;;6.12;2.80;;;;;;;3.92;39.62;101469.75;1712778;84;21118;-74
2024/03/11 10:58:28;;;;;;;5.62;2.87;;;;;;;3.84;39.32;101461.36;1712855;82;21062;-73
2024/03/11 11:01:03;;;;;;;6.92;3.33;;;;;;;3.81;38.95;101467.90;1712831;83;21118;-73
2024/03/11 11:03:35;;;;;;;7.47;3.30;;;;;;;3.76;39.64;101466.56;1716962;83;21675;-72
2024/03/11 11:06:27;;;;;;;9.35;3.10;;;;;;;3.69;38.98;101470.28;1713053;83;21576;-77
2024/03/11 11:08:57;;;;;;;5.83;2.75;;;;;;;3.65;39.20;101463.87;1679329;84;21095;-73
2024/03/11 11:11:29;;;;;;;6.58;2.80;;;;;;;3.63;39.76;101456.38;1681345;84;21051;-74
2024/03/11 11:14:02;;;;;;;5.20;2.87;;;;;;;3.57;39.71;101459.59;1685574;85;21479;-73
2024/03/11 11:16:34;;;;;;;6.70;2.70;;;;;;;3.58;39.56;101457.25;1676055;85;21447;-73
2024/03/11 11:19:06;;;;;;;5.35;2.47;;;;;;;3.65;39.52;101446.27;1676061;85;21094;-73
2024/03/11 11:21:35;;;;;;;5.33;3.00;;;;;;;3.71;39.43;101442.55;1677393;85;21127;-73
2024/03/11 11:24:27;;;;;;;4.62;2.50;;;;;;;3.77;39.38;101442.04;1684942;85;21126;-73
2024/03/11 11:27:06;;;;;;;7.60;2.65;;;;;;;3.83;39.15;101439.30;1645997;85;21070;-72
2024/03/11 11:29:35;;;;;;;10.67;2.50;;;;;;;3.87;38.98;101439.91;1652426;85;21225;-74
2024/03/11 11:32:08;;;;;;;9.95;2.83;;;;;;;3.87;38.97;101439.41;1638874;86;21117;-73
2024/03/11 11:34:52;;;;;;;7.67;2.60;;;;;;;3.90;38.86;101453.20;1637038;86;21111;-74
2024/03/11 11:37:33;;;;;;;6.37;2.55;;;;;;;4.00;38.36;101434.71;1645295;86;22132;-73
2024/03/11 11:40:31;;;;;;;5.10;2.72;;;;;;;4.09;38.18;101433.92;1643598;86;21119;-72
2024/03/11 11:43:00;;;;;;;6.95;2.60;;;;;;;4.16;38.02;101436.12;1685877;84;21047;-73
2024/03/11 11:45:54;;;;;;;4.53;2.50;;;;;;;4.12;37.97;101441.80;1681307;85;21110;-73